sensor_id;sensor_type;location;lat;lon;timestamp;P1;durP1;ratioP1;P2;durP2;ratioP2
47153;SDS011;32907;41.412;2.164;2023-04-24T00:01:59;5.00;;;1.98;;
47153;SDS011;32907;41.412;2.164;2023-04-24T00:04:59;5.40;;;1.70;;
47153;SDS011;32907;41.412;2.164;2023-04-24T00:07:45;3.75;;;1.85;;
47153;SDS011;32907;41.412;2.164;2023-04-24T00:10:29;4.05;;;2.10;;
47153;SDS011;32907;41.412;2.164;2023-04-24T00:12:58;4.70;;;1.92;;
47153;SDS011;32907;41.412;2.164;2023-04-24T00:15:43;4.93;;;1.80;;
47153;SDS011;32907;41.412;2.164;2023-04-24T00:18:38;5.32;;;2.17;;
47153;SDS011;32907;41.412;2.164;2023-04-24T00:21:21;4.97;;;1.63;;
47153;SDS011;32907;41.412;2.164;2023-04-24T00:24:07;3.20;;;1.70;;
47153;SDS011;32907;41.412;2.164;2023-04-24T00:27:29;6.22;;;1.98;;
47153;SDS011;32907;41.412;2.164;2023-04-24T00:34:03;7.72;;;2.20;;
47153;SDS011;32907;41.412;2.164;2023-04-24T00:40:01;6.10;;;2.13;;
47153;SDS011;32907;41.412;2.164;2023-04-24T00:42:40;3.78;;;1.60;;
47153;SDS011;32907;41.412;2.164;2023-04-24T00:45:26;5.65;;;2.30;;
47153;SDS011;32907;41.412;2.164;2023-04-24T00:48:20;3.78;;;1.85;;
47153;SDS011;32907;41.412;2.164;2023-04-24T00:51:20;4.38;;;1.70;;
47153;SDS011;32907;41.412;2.164;2023-04-24T00:53:58;6.20;;;1.70;;
47153;SDS011;32907;41.412;2.164;2023-04-24T00:56:52;4.45;;;1.73;;
47153;SDS011;32907;41.412;2.164;2023-04-24T00:59:50;4.63;;;1.70;;
47153;SDS011;32907;41.412;2.164;2023-04-24T01:02:34;4.00;;;2.17;;
47153;SDS011;32907;41.412;2.164;2023-04-24T01:05:17;5.90;;;2.30;;
47153;SDS011;32907;41.412;2.164;2023-04-24T01:08:18;6.25;;;2.42;;
47153;SDS011;32907;41.412;2.164;2023-04-24T01:11:05;5.63;;;2.20;;
47153;SDS011;32907;41.412;2.164;2023-04-24T01:13:53;7.47;;;2.70;;
47153;SDS011;32907;41.412;2.164;2023-04-24T01:16:35;5.93;;;2.20;;
47153;SDS011;32907;41.412;2.164;2023-04-24T01:22:08;4.65;;;1.92;;
47153;SDS011;32907;41.412;2.164;2023-04-24T01:24:58;6.40;;;1.85;;
47153;SDS011;32907;41.412;2.164;2023-04-24T01:28:00;3.78;;;1.70;;
47153;SDS011;32907;41.412;2.164;2023-04-24T01:30:46;4.30;;;1.45;;
47153;SDS011;32907;41.412;2.164;2023-04-24T01:33:36;3.70;;;1.50;;
47153;SDS011;32907;41.412;2.164;2023-04-24T01:39:31;3.88;;;1.63;;
47153;SDS011;32907;41.412;2.164;2023-04-24T01:42:27;2.83;;;1.27;;
47153;SDS011;32907;41.412;2.164;2023-04-24T01:45:20;4.20;;;1.40;;
47153;SDS011;32907;41.412;2.164;2023-04-24T01:47:58;3.45;;;1.40;;
47153;SDS011;32907;41.412;2.164;2023-04-24T01:51:04;5.72;;;1.60;;
47153;SDS011;32907;41.412;2.164;2023-04-24T01:54:12;3.63;;;1.40;;
47153;SDS011;32907;41.412;2.164;2023-04-24T01:56:48;4.00;;;1.38;;
47153;SDS011;32907;41.412;2.164;2023-04-24T01:59:33;3.08;;;1.20;;
47153;SDS011;32907;41.412;2.164;2023-04-24T02:05:34;4.47;;;1.30;;
47153;SDS011;32907;41.412;2.164;2023-04-24T02:08:11;3.05;;;1.10;;
47153;SDS011;32907;41.412;2.164;2023-04-24T02:11:27;4.75;;;1.83;;
47153;SDS011;32907;41.412;2.164;2023-04-24T02:14:02;2.85;;;1.10;;
47153;SDS011;32907;41.412;2.164;2023-04-24T02:16:52;2.80;;;1.00;;
47153;SDS011;32907;41.412;2.164;2023-04-24T02:19:37;2.95;;;1.27;;
47153;SDS011;32907;41.412;2.164;2023-04-24T02:22:16;2.80;;;1.30;;
47153;SDS011;32907;41.412;2.164;2023-04-24T02:25:10;2.92;;;1.20;;
47153;SDS011;32907;41.412;2.164;2023-04-24T02:28:02;2.22;;;0.90;;
47153;SDS011;32907;41.412;2.164;2023-04-24T02:30:44;2.63;;;1.20;;
47153;SDS011;32907;41.412;2.164;2023-04-24T02:33:17;4.38;;;1.30;;
47153;SDS011;32907;41.412;2.164;2023-04-24T02:36:11;2.42;;;1.13;;
47153;SDS011;32907;41.412;2.164;2023-04-24T02:38:55;4.13;;;1.40;;
47153;SDS011;32907;41.412;2.164;2023-04-24T02:41:32;3.08;;;1.25;;
47153;SDS011;32907;41.412;2.164;2023-04-24T02:44:06;2.38;;;1.02;;
47153;SDS011;32907;41.412;2.164;2023-04-24T02:46:51;3.25;;;1.27;;
47153;SDS011;32907;41.412;2.164;2023-04-24T02:49:27;3.03;;;1.30;;
47153;SDS011;32907;41.412;2.164;2023-04-24T02:52:02;3.17;;;1.52;;
47153;SDS011;32907;41.412;2.164;2023-04-24T02:54:54;3.67;;;1.60;;
47153;SDS011;32907;41.412;2.164;2023-04-24T02:57:27;3.90;;;1.67;;
47153;SDS011;32907;41.412;2.164;2023-04-24T03:00:16;4.85;;;1.35;;
47153;SDS011;32907;41.412;2.164;2023-04-24T03:03:01;4.40;;;1.50;;
47153;SDS011;32907;41.412;2.164;2023-04-24T03:05:35;4.03;;;2.13;;
47153;SDS011;32907;41.412;2.164;2023-04-24T03:08:12;2.70;;;1.40;;
47153;SDS011;32907;41.412;2.164;2023-04-24T03:13:33;4.40;;;1.80;;
47153;SDS011;32907;41.412;2.164;2023-04-24T03:16:10;3.92;;;1.33;;
47153;SDS011;32907;41.412;2.164;2023-04-24T03:18:57;3.22;;;1.50;;
47153;SDS011;32907;41.412;2.164;2023-04-24T03:21:32;4.63;;;1.50;;
47153;SDS011;32907;41.412;2.164;2023-04-24T03:24:13;3.20;;;1.60;;
47153;SDS011;32907;41.412;2.164;2023-04-24T03:26:52;4.63;;;1.67;;
47153;SDS011;32907;41.412;2.164;2023-04-24T03:29:44;4.20;;;1.50;;
47153;SDS011;32907;41.412;2.164;2023-04-24T03:32:26;3.45;;;1.60;;
47153;SDS011;32907;41.412;2.164;2023-04-24T03:35:12;3.05;;;1.60;;
47153;SDS011;32907;41.412;2.164;2023-04-24T03:37:46;2.70;;;1.40;;
47153;SDS011;32907;41.412;2.164;2023-04-24T03:40:53;3.45;;;1.45;;
47153;SDS011;32907;41.412;2.164;2023-04-24T03:43:43;3.67;;;1.45;;
47153;SDS011;32907;41.412;2.164;2023-04-24T03:46:19;3.15;;;1.35;;
47153;SDS011;32907;41.412;2.164;2023-04-24T03:48:54;3.70;;;1.73;;
47153;SDS011;32907;41.412;2.164;2023-04-24T03:51:37;3.13;;;1.27;;
47153;SDS011;32907;41.412;2.164;2023-04-24T03:54:26;2.97;;;1.50;;
47153;SDS011;32907;41.412;2.164;2023-04-24T03:56:58;2.85;;;1.42;;
47153;SDS011;32907;41.412;2.164;2023-04-24T03:59:30;3.35;;;1.77;;
47153;SDS011;32907;41.412;2.164;2023-04-24T04:02:42;3.60;;;1.67;;
47153;SDS011;32907;41.412;2.164;2023-04-24T04:05:29;4.75;;;1.95;;
47153;SDS011;32907;41.412;2.164;2023-04-24T04:08:01;3.33;;;1.90;;
47153;SDS011;32907;41.412;2.164;2023-04-24T04:10:35;5.95;;;1.80;;
47153;SDS011;32907;41.412;2.164;2023-04-24T04:13:17;4.97;;;2.33;;
47153;SDS011;32907;41.412;2.164;2023-04-24T04:15:48;6.72;;;2.15;;
47153;SDS011;32907;41.412;2.164;2023-04-24T04:18:48;5.38;;;2.55;;
47153;SDS011;32907;41.412;2.164;2023-04-24T04:21:26;6.03;;;1.98;;
47153;SDS011;32907;41.412;2.164;2023-04-24T04:24:17;4.65;;;1.77;;
47153;SDS011;32907;41.412;2.164;2023-04-24T04:27:01;6.38;;;2.45;;
47153;SDS011;32907;41.412;2.164;2023-04-24T04:29:51;4.93;;;1.95;;
47153;SDS011;32907;41.412;2.164;2023-04-24T04:32:37;4.68;;;2.38;;
47153;SDS011;32907;41.412;2.164;2023-04-24T04:35:13;6.45;;;3.00;;
47153;SDS011;32907;41.412;2.164;2023-04-24T04:37:43;9.88;;;6.00;;
47153;SDS011;32907;41.412;2.164;2023-04-24T04:40:36;9.18;;;6.28;;
47153;SDS011;32907;41.412;2.164;2023-04-24T04:43:15;7.60;;;5.20;;
47153;SDS011;32907;41.412;2.164;2023-04-24T04:45:53;8.05;;;4.40;;
47153;SDS011;32907;41.412;2.164;2023-04-24T04:48:37;5.43;;;3.70;;
47153;SDS011;32907;41.412;2.164;2023-04-24T04:51:14;6.57;;;3.67;;
47153;SDS011;32907;41.412;2.164;2023-04-24T04:53:47;8.07;;;3.20;;
47153;SDS011;32907;41.412;2.164;2023-04-24T04:56:18;8.85;;;3.25;;
47153;SDS011;32907;41.412;2.164;2023-04-24T04:59:10;5.10;;;3.20;;
47153;SDS011;32907;41.412;2.164;2023-04-24T05:01:39;13.30;;;7.70;;
47153;SDS011;32907;41.412;2.164;2023-04-24T05:04:40;11.27;;;7.13;;
47153;SDS011;32907;41.412;2.164;2023-04-24T05:07:16;10.55;;;6.05;;
47153;SDS011;32907;41.412;2.164;2023-04-24T05:10:11;8.10;;;4.20;;
47153;SDS011;32907;41.412;2.164;2023-04-24T05:12:47;9.27;;;3.70;;
47153;SDS011;32907;41.412;2.164;2023-04-24T05:15:19;8.70;;;3.47;;
47153;SDS011;32907;41.412;2.164;2023-04-24T05:17:53;11.60;;;3.70;;
47153;SDS011;32907;41.412;2.164;2023-04-24T05:20:29;9.55;;;3.20;;
47153;SDS011;32907;41.412;2.164;2023-04-24T05:23:04;17.35;;;7.05;;
47153;SDS011;32907;41.412;2.164;2023-04-24T05:25:35;22.65;;;8.15;;
47153;SDS011;32907;41.412;2.164;2023-04-24T05:28:10;21.98;;;7.05;;
47153;SDS011;32907;41.412;2.164;2023-04-24T05:30:51;14.93;;;5.50;;
47153;SDS011;32907;41.412;2.164;2023-04-24T05:33:35;16.25;;;4.75;;
47153;SDS011;32907;41.412;2.164;2023-04-24T05:36:04;12.82;;;5.07;;
47153;SDS011;32907;41.412;2.164;2023-04-24T05:41:49;12.90;;;4.90;;
47153;SDS011;32907;41.412;2.164;2023-04-24T05:44:17;14.55;;;5.28;;
47153;SDS011;32907;41.412;2.164;2023-04-24T05:47:05;10.13;;;4.68;;
47153;SDS011;32907;41.412;2.164;2023-04-24T05:49:38;10.27;;;5.28;;
47153;SDS011;32907;41.412;2.164;2023-04-24T05:52:10;9.88;;;5.05;;
47153;SDS011;32907;41.412;2.164;2023-04-24T05:54:45;10.10;;;5.40;;
47153;SDS011;32907;41.412;2.164;2023-04-24T05:57:30;8.02;;;5.05;;
47153;SDS011;32907;41.412;2.164;2023-04-24T06:00:10;8.43;;;4.90;;
47153;SDS011;32907;41.412;2.164;2023-04-24T06:02:49;12.25;;;5.07;;
47153;SDS011;32907;41.412;2.164;2023-04-24T06:05:21;8.43;;;5.00;;
47153;SDS011;32907;41.412;2.164;2023-04-24T06:07:52;12.68;;;7.15;;
47153;SDS011;32907;41.412;2.164;2023-04-24T06:10:25;14.15;;;7.30;;
47153;SDS011;32907;41.412;2.164;2023-04-24T06:12:53;13.15;;;7.25;;
47153;SDS011;32907;41.412;2.164;2023-04-24T06:15:24;12.57;;;7.25;;
47153;SDS011;32907;41.412;2.164;2023-04-24T06:18:07;11.98;;;7.05;;
47153;SDS011;32907;41.412;2.164;2023-04-24T06:20:40;10.60;;;5.68;;
47153;SDS011;32907;41.412;2.164;2023-04-24T06:23:09;11.52;;;6.70;;
47153;SDS011;32907;41.412;2.164;2023-04-24T06:25:40;13.80;;;6.65;;
47153;SDS011;32907;41.412;2.164;2023-04-24T06:28:08;13.50;;;7.07;;
47153;SDS011;32907;41.412;2.164;2023-04-24T06:30:36;16.67;;;6.40;;
47153;SDS011;32907;41.412;2.164;2023-04-24T06:33:04;11.38;;;5.35;;
47153;SDS011;32907;41.412;2.164;2023-04-24T06:35:49;8.15;;;5.00;;
47153;SDS011;32907;41.412;2.164;2023-04-24T06:38:18;8.95;;;5.50;;
47153;SDS011;32907;41.412;2.164;2023-04-24T06:40:46;8.23;;;4.18;;
47153;SDS011;32907;41.412;2.164;2023-04-24T06:43:17;8.63;;;4.85;;
47153;SDS011;32907;41.412;2.164;2023-04-24T06:45:54;9.55;;;4.80;;
47153;SDS011;32907;41.412;2.164;2023-04-24T06:48:23;8.85;;;5.80;;
47153;SDS011;32907;41.412;2.164;2023-04-24T06:50:52;10.77;;;5.45;;
47153;SDS011;32907;41.412;2.164;2023-04-24T06:53:20;12.52;;;5.70;;
47153;SDS011;32907;41.412;2.164;2023-04-24T06:55:48;11.07;;;5.85;;
47153;SDS011;32907;41.412;2.164;2023-04-24T06:58:16;11.98;;;6.93;;
47153;SDS011;32907;41.412;2.164;2023-04-24T07:00:45;11.23;;;6.05;;
47153;SDS011;32907;41.412;2.164;2023-04-24T07:03:13;10.10;;;5.85;;
47153;SDS011;32907;41.412;2.164;2023-04-24T07:05:41;9.15;;;5.28;;
47153;SDS011;32907;41.412;2.164;2023-04-24T07:08:09;7.70;;;5.20;;
47153;SDS011;32907;41.412;2.164;2023-04-24T07:10:38;10.30;;;5.80;;
47153;SDS011;32907;41.412;2.164;2023-04-24T07:13:07;11.15;;;6.03;;
47153;SDS011;32907;41.412;2.164;2023-04-24T07:15:35;12.40;;;5.70;;
47153;SDS011;32907;41.412;2.164;2023-04-24T07:18:04;9.95;;;5.97;;
47153;SDS011;32907;41.412;2.164;2023-04-24T07:20:32;10.85;;;6.82;;
47153;SDS011;32907;41.412;2.164;2023-04-24T07:23:00;12.80;;;7.90;;
47153;SDS011;32907;41.412;2.164;2023-04-24T07:25:29;11.85;;;8.00;;
47153;SDS011;32907;41.412;2.164;2023-04-24T07:27:57;18.17;;;9.27;;
47153;SDS011;32907;41.412;2.164;2023-04-24T07:30:25;10.75;;;7.53;;
47153;SDS011;32907;41.412;2.164;2023-04-24T07:32:53;11.43;;;6.32;;
47153;SDS011;32907;41.412;2.164;2023-04-24T07:35:21;9.95;;;6.82;;
47153;SDS011;32907;41.412;2.164;2023-04-24T07:37:49;12.52;;;7.82;;
47153;SDS011;32907;41.412;2.164;2023-04-24T07:40:16;11.98;;;6.95;;
47153;SDS011;32907;41.412;2.164;2023-04-24T07:42:44;13.30;;;6.95;;
47153;SDS011;32907;41.412;2.164;2023-04-24T07:45:12;12.25;;;7.95;;
47153;SDS011;32907;41.412;2.164;2023-04-24T07:47:43;13.65;;;7.93;;
47153;SDS011;32907;41.412;2.164;2023-04-24T07:50:13;12.15;;;7.60;;
47153;SDS011;32907;41.412;2.164;2023-04-24T07:52:41;11.00;;;6.55;;
47153;SDS011;32907;41.412;2.164;2023-04-24T07:55:08;11.63;;;6.40;;
47153;SDS011;32907;41.412;2.164;2023-04-24T07:57:36;14.43;;;6.55;;
47153;SDS011;32907;41.412;2.164;2023-04-24T08:00:04;9.85;;;6.65;;
47153;SDS011;32907;41.412;2.164;2023-04-24T08:02:37;14.65;;;6.45;;
47153;SDS011;32907;41.412;2.164;2023-04-24T08:05:07;13.85;;;5.47;;
47153;SDS011;32907;41.412;2.164;2023-04-24T08:07:35;11.35;;;5.85;;
47153;SDS011;32907;41.412;2.164;2023-04-24T08:10:03;10.93;;;5.18;;
47153;SDS011;32907;41.412;2.164;2023-04-24T08:12:32;11.05;;;5.72;;
47153;SDS011;32907;41.412;2.164;2023-04-24T08:15:00;13.55;;;5.95;;
47153;SDS011;32907;41.412;2.164;2023-04-24T08:17:28;12.80;;;6.10;;
47153;SDS011;32907;41.412;2.164;2023-04-24T08:19:57;11.70;;;5.57;;
47153;SDS011;32907;41.412;2.164;2023-04-24T08:22:30;11.30;;;5.07;;
47153;SDS011;32907;41.412;2.164;2023-04-24T08:24:59;8.48;;;5.30;;
47153;SDS011;32907;41.412;2.164;2023-04-24T08:27:27;13.52;;;5.43;;
47153;SDS011;32907;41.412;2.164;2023-04-24T08:29:56;10.25;;;5.05;;
47153;SDS011;32907;41.412;2.164;2023-04-24T08:32:24;10.93;;;4.88;;
47153;SDS011;32907;41.412;2.164;2023-04-24T08:34:52;10.98;;;5.28;;
47153;SDS011;32907;41.412;2.164;2023-04-24T08:37:20;11.00;;;5.25;;
47153;SDS011;32907;41.412;2.164;2023-04-24T08:39:49;16.38;;;5.93;;
47153;SDS011;32907;41.412;2.164;2023-04-24T08:42:17;21.08;;;6.90;;
47153;SDS011;32907;41.412;2.164;2023-04-24T08:44:47;23.00;;;7.43;;
47153;SDS011;32907;41.412;2.164;2023-04-24T08:47:16;20.45;;;7.55;;
47153;SDS011;32907;41.412;2.164;2023-04-24T08:49:47;24.15;;;7.68;;
47153;SDS011;32907;41.412;2.164;2023-04-24T08:52:17;24.60;;;8.02;;
47153;SDS011;32907;41.412;2.164;2023-04-24T08:54:46;20.58;;;6.93;;
47153;SDS011;32907;41.412;2.164;2023-04-24T08:57:15;24.55;;;7.68;;
47153;SDS011;32907;41.412;2.164;2023-04-24T08:59:44;19.08;;;6.35;;
47153;SDS011;32907;41.412;2.164;2023-04-24T09:02:12;18.95;;;6.93;;
47153;SDS011;32907;41.412;2.164;2023-04-24T09:04:42;19.55;;;6.78;;
47153;SDS011;32907;41.412;2.164;2023-04-24T09:07:12;16.67;;;6.90;;
47153;SDS011;32907;41.412;2.164;2023-04-24T09:09:44;21.83;;;7.38;;
47153;SDS011;32907;41.412;2.164;2023-04-24T09:12:12;20.58;;;8.95;;
47153;SDS011;32907;41.412;2.164;2023-04-24T09:14:42;18.48;;;8.77;;
47153;SDS011;32907;41.412;2.164;2023-04-24T09:17:12;19.13;;;8.60;;
47153;SDS011;32907;41.412;2.164;2023-04-24T09:19:41;15.25;;;6.97;;
47153;SDS011;32907;41.412;2.164;2023-04-24T09:22:09;11.40;;;5.20;;
47153;SDS011;32907;41.412;2.164;2023-04-24T09:24:38;13.63;;;5.47;;
47153;SDS011;32907;41.412;2.164;2023-04-24T09:27:06;18.92;;;6.25;;
47153;SDS011;32907;41.412;2.164;2023-04-24T09:29:37;10.70;;;4.63;;
47153;SDS011;32907;41.412;2.164;2023-04-24T09:32:18;11.25;;;4.70;;
47153;SDS011;32907;41.412;2.164;2023-04-24T09:34:50;10.73;;;4.53;;
47153;SDS011;32907;41.412;2.164;2023-04-24T09:37:37;10.20;;;4.72;;
47153;SDS011;32907;41.412;2.164;2023-04-24T09:40:16;12.00;;;4.22;;
47153;SDS011;32907;41.412;2.164;2023-04-24T09:42:46;14.90;;;5.68;;
47153;SDS011;32907;41.412;2.164;2023-04-24T09:45:19;16.05;;;4.63;;
47153;SDS011;32907;41.412;2.164;2023-04-24T09:47:51;9.35;;;3.88;;
47153;SDS011;32907;41.412;2.164;2023-04-24T09:50:21;9.52;;;4.18;;
47153;SDS011;32907;41.412;2.164;2023-04-24T09:52:56;10.95;;;3.85;;
47153;SDS011;32907;41.412;2.164;2023-04-24T09:55:25;16.40;;;4.38;;
47153;SDS011;32907;41.412;2.164;2023-04-24T10:00:25;22.08;;;14.70;;
47153;SDS011;32907;41.412;2.164;2023-04-24T10:03:04;26.02;;;18.52;;
47153;SDS011;32907;41.412;2.164;2023-04-24T10:05:36;28.40;;;15.80;;
47153;SDS011;32907;41.412;2.164;2023-04-24T10:08:06;22.55;;;14.65;;
47153;SDS011;32907;41.412;2.164;2023-04-24T10:10:41;17.17;;;11.63;;
47153;SDS011;32907;41.412;2.164;2023-04-24T10:13:10;13.65;;;9.90;;
47153;SDS011;32907;41.412;2.164;2023-04-24T10:15:40;13.20;;;7.68;;
47153;SDS011;32907;41.412;2.164;2023-04-24T10:18:09;13.63;;;7.15;;
47153;SDS011;32907;41.412;2.164;2023-04-24T10:20:38;11.40;;;6.70;;
47153;SDS011;32907;41.412;2.164;2023-04-24T10:23:07;11.35;;;5.22;;
47153;SDS011;32907;41.412;2.164;2023-04-24T10:25:35;10.80;;;5.53;;
47153;SDS011;32907;41.412;2.164;2023-04-24T10:28:04;9.63;;;5.00;;
47153;SDS011;32907;41.412;2.164;2023-04-24T10:30:35;9.15;;;4.97;;
47153;SDS011;32907;41.412;2.164;2023-04-24T10:33:03;9.95;;;5.32;;
47153;SDS011;32907;41.412;2.164;2023-04-24T10:35:39;9.45;;;4.60;;
47153;SDS011;32907;41.412;2.164;2023-04-24T10:38:11;10.43;;;4.30;;
47153;SDS011;32907;41.412;2.164;2023-04-24T10:40:41;12.73;;;5.72;;
47153;SDS011;32907;41.412;2.164;2023-04-24T10:43:10;18.25;;;9.57;;
47153;SDS011;32907;41.412;2.164;2023-04-24T10:46:03;16.70;;;9.60;;
47153;SDS011;32907;41.412;2.164;2023-04-24T10:48:33;15.00;;;9.15;;
47153;SDS011;32907;41.412;2.164;2023-04-24T10:51:01;14.88;;;7.38;;
47153;SDS011;32907;41.412;2.164;2023-04-24T10:53:30;11.20;;;5.60;;
47153;SDS011;32907;41.412;2.164;2023-04-24T10:56:05;12.23;;;4.97;;
47153;SDS011;32907;41.412;2.164;2023-04-24T10:58:44;8.90;;;4.25;;
47153;SDS011;32907;41.412;2.164;2023-04-24T11:01:23;10.20;;;4.57;;
47153;SDS011;32907;41.412;2.164;2023-04-24T11:03:55;7.80;;;3.67;;
47153;SDS011;32907;41.412;2.164;2023-04-24T11:06:35;8.70;;;3.35;;
47153;SDS011;32907;41.412;2.164;2023-04-24T11:09:04;8.02;;;4.00;;
47153;SDS011;32907;41.412;2.164;2023-04-24T11:11:38;8.02;;;4.13;;
47153;SDS011;32907;41.412;2.164;2023-04-24T11:14:15;9.43;;;3.88;;
47153;SDS011;32907;41.412;2.164;2023-04-24T11:16:44;10.00;;;3.88;;
47153;SDS011;32907;41.412;2.164;2023-04-24T11:19:21;8.48;;;4.22;;
47153;SDS011;32907;41.412;2.164;2023-04-24T11:21:54;17.10;;;7.57;;
47153;SDS011;32907;41.412;2.164;2023-04-24T11:27:21;12.45;;;5.10;;
47153;SDS011;32907;41.412;2.164;2023-04-24T11:32:25;16.40;;;8.32;;
47153;SDS011;32907;41.412;2.164;2023-04-24T11:35:00;15.65;;;7.85;;
47153;SDS011;32907;41.412;2.164;2023-04-24T11:37:48;12.02;;;5.50;;
47153;SDS011;32907;41.412;2.164;2023-04-24T11:40:21;13.10;;;5.68;;
47153;SDS011;32907;41.412;2.164;2023-04-24T11:42:51;13.57;;;5.38;;
47153;SDS011;32907;41.412;2.164;2023-04-24T11:45:24;9.35;;;5.00;;
47153;SDS011;32907;41.412;2.164;2023-04-24T11:47:53;10.32;;;4.43;;
47153;SDS011;32907;41.412;2.164;2023-04-24T11:50:22;10.88;;;4.80;;
47153;SDS011;32907;41.412;2.164;2023-04-24T11:52:53;8.95;;;4.70;;
47153;SDS011;32907;41.412;2.164;2023-04-24T11:57:55;17.52;;;5.30;;
47153;SDS011;32907;41.412;2.164;2023-04-24T12:00:28;36.55;;;18.25;;
47153;SDS011;32907;41.412;2.164;2023-04-24T12:03:05;33.70;;;14.70;;
47153;SDS011;32907;41.412;2.164;2023-04-24T12:08:03;25.20;;;10.55;;
47153;SDS011;32907;41.412;2.164;2023-04-24T12:10:32;77.20;;;15.27;;
47153;SDS011;32907;41.412;2.164;2023-04-24T12:13:02;69.20;;;12.98;;
47153;SDS011;32907;41.412;2.164;2023-04-24T12:15:30;40.17;;;9.25;;
47153;SDS011;32907;41.412;2.164;2023-04-24T12:17:58;19.30;;;7.70;;
47153;SDS011;32907;41.412;2.164;2023-04-24T12:20:27;25.70;;;7.63;;
47153;SDS011;32907;41.412;2.164;2023-04-24T12:22:57;23.08;;;6.03;;
47153;SDS011;32907;41.412;2.164;2023-04-24T12:25:33;17.15;;;5.22;;
47153;SDS011;32907;41.412;2.164;2023-04-24T12:30:54;13.52;;;4.95;;
47153;SDS011;32907;41.412;2.164;2023-04-24T12:33:26;13.93;;;6.03;;
47153;SDS011;32907;41.412;2.164;2023-04-24T12:35:54;18.23;;;5.63;;
47153;SDS011;32907;41.412;2.164;2023-04-24T12:38:25;21.20;;;6.78;;
47153;SDS011;32907;41.412;2.164;2023-04-24T12:41:07;42.10;;;9.27;;
47153;SDS011;32907;41.412;2.164;2023-04-24T12:43:36;48.45;;;10.57;;
47153;SDS011;32907;41.412;2.164;2023-04-24T12:46:05;60.25;;;12.40;;
47153;SDS011;32907;41.412;2.164;2023-04-24T12:48:33;35.85;;;9.13;;
47153;SDS011;32907;41.412;2.164;2023-04-24T12:51:01;25.92;;;8.02;;
47153;SDS011;32907;41.412;2.164;2023-04-24T12:53:29;20.73;;;5.97;;
47153;SDS011;32907;41.412;2.164;2023-04-24T12:55:58;17.67;;;5.47;;
47153;SDS011;32907;41.412;2.164;2023-04-24T12:58:26;24.95;;;6.85;;
47153;SDS011;32907;41.412;2.164;2023-04-24T13:00:54;27.38;;;7.35;;
47153;SDS011;32907;41.412;2.164;2023-04-24T13:03:22;46.08;;;10.15;;
47153;SDS011;32907;41.412;2.164;2023-04-24T13:05:50;50.05;;;11.80;;
47153;SDS011;32907;41.412;2.164;2023-04-24T13:08:18;46.35;;;9.45;;
47153;SDS011;32907;41.412;2.164;2023-04-24T13:10:46;42.88;;;9.40;;
47153;SDS011;32907;41.412;2.164;2023-04-24T13:13:14;28.00;;;6.40;;
47153;SDS011;32907;41.412;2.164;2023-04-24T13:15:42;18.50;;;5.15;;
47153;SDS011;32907;41.412;2.164;2023-04-24T13:18:09;22.70;;;5.63;;
47153;SDS011;32907;41.412;2.164;2023-04-24T13:20:37;13.68;;;4.13;;
47153;SDS011;32907;41.412;2.164;2023-04-24T13:23:05;13.63;;;4.13;;
47153;SDS011;32907;41.412;2.164;2023-04-24T13:25:34;10.85;;;3.83;;
47153;SDS011;32907;41.412;2.164;2023-04-24T13:28:04;12.18;;;3.65;;
47153;SDS011;32907;41.412;2.164;2023-04-24T13:30:32;16.35;;;3.80;;
47153;SDS011;32907;41.412;2.164;2023-04-24T13:33:00;16.65;;;7.05;;
47153;SDS011;32907;41.412;2.164;2023-04-24T13:35:28;18.05;;;6.20;;
47153;SDS011;32907;41.412;2.164;2023-04-24T13:37:57;20.55;;;6.95;;
47153;SDS011;32907;41.412;2.164;2023-04-24T13:40:25;15.65;;;6.40;;
47153;SDS011;32907;41.412;2.164;2023-04-24T13:42:53;10.98;;;5.97;;
47153;SDS011;32907;41.412;2.164;2023-04-24T13:45:20;19.45;;;5.68;;
47153;SDS011;32907;41.412;2.164;2023-04-24T13:47:52;12.73;;;6.00;;
47153;SDS011;32907;41.412;2.164;2023-04-24T13:50:21;15.35;;;5.68;;
47153;SDS011;32907;41.412;2.164;2023-04-24T13:52:49;13.10;;;5.30;;
47153;SDS011;32907;41.412;2.164;2023-04-24T13:55:17;21.58;;;6.65;;
47153;SDS011;32907;41.412;2.164;2023-04-24T13:57:45;22.88;;;6.22;;
47153;SDS011;32907;41.412;2.164;2023-04-24T14:00:13;13.38;;;5.30;;
47153;SDS011;32907;41.412;2.164;2023-04-24T14:02:41;14.52;;;4.10;;
47153;SDS011;32907;41.412;2.164;2023-04-24T14:05:09;12.38;;;4.03;;
47153;SDS011;32907;41.412;2.164;2023-04-24T14:07:38;8.18;;;4.03;;
47153;SDS011;32907;41.412;2.164;2023-04-24T14:10:06;9.05;;;3.70;;
47153;SDS011;32907;41.412;2.164;2023-04-24T14:12:37;8.80;;;4.15;;
47153;SDS011;32907;41.412;2.164;2023-04-24T14:15:06;7.68;;;3.58;;
47153;SDS011;32907;41.412;2.164;2023-04-24T14:17:34;8.90;;;3.53;;
47153;SDS011;32907;41.412;2.164;2023-04-24T14:20:02;9.38;;;3.42;;
47153;SDS011;32907;41.412;2.164;2023-04-24T14:22:32;9.63;;;3.65;;
47153;SDS011;32907;41.412;2.164;2023-04-24T14:25:00;12.63;;;4.45;;
47153;SDS011;32907;41.412;2.164;2023-04-24T14:27:28;11.50;;;4.35;;
47153;SDS011;32907;41.412;2.164;2023-04-24T14:29:55;8.70;;;4.00;;
47153;SDS011;32907;41.412;2.164;2023-04-24T14:32:24;10.55;;;4.13;;
47153;SDS011;32907;41.412;2.164;2023-04-24T14:34:51;10.43;;;4.10;;
47153;SDS011;32907;41.412;2.164;2023-04-24T14:37:19;7.93;;;3.53;;
47153;SDS011;32907;41.412;2.164;2023-04-24T14:39:47;8.10;;;3.08;;
47153;SDS011;32907;41.412;2.164;2023-04-24T14:42:32;6.38;;;2.72;;
47153;SDS011;32907;41.412;2.164;2023-04-24T14:45:01;9.48;;;3.13;;
47153;SDS011;32907;41.412;2.164;2023-04-24T14:47:29;7.80;;;2.97;;
47153;SDS011;32907;41.412;2.164;2023-04-24T14:49:57;6.10;;;3.00;;
47153;SDS011;32907;41.412;2.164;2023-04-24T14:52:25;4.57;;;2.33;;
47153;SDS011;32907;41.412;2.164;2023-04-24T14:54:53;5.32;;;2.65;;
47153;SDS011;32907;41.412;2.164;2023-04-24T14:57:21;10.90;;;3.28;;
47153;SDS011;32907;41.412;2.164;2023-04-24T14:59:49;8.55;;;2.97;;
47153;SDS011;32907;41.412;2.164;2023-04-24T15:02:18;5.43;;;2.50;;
47153;SDS011;32907;41.412;2.164;2023-04-24T15:04:48;6.97;;;2.60;;
47153;SDS011;32907;41.412;2.164;2023-04-24T15:07:17;6.40;;;3.28;;
47153;SDS011;32907;41.412;2.164;2023-04-24T15:09:44;6.88;;;3.00;;
47153;SDS011;32907;41.412;2.164;2023-04-24T15:12:14;8.93;;;2.53;;
47153;SDS011;32907;41.412;2.164;2023-04-24T15:14:42;7.22;;;2.80;;
47153;SDS011;32907;41.412;2.164;2023-04-24T15:17:10;7.85;;;3.35;;
47153;SDS011;32907;41.412;2.164;2023-04-24T15:19:38;9.60;;;3.65;;
47153;SDS011;32907;41.412;2.164;2023-04-24T15:22:06;7.30;;;3.17;;
47153;SDS011;32907;41.412;2.164;2023-04-24T15:24:34;6.13;;;2.47;;
47153;SDS011;32907;41.412;2.164;2023-04-24T15:27:02;7.45;;;2.97;;
47153;SDS011;32907;41.412;2.164;2023-04-24T15:29:30;6.53;;;2.88;;
47153;SDS011;32907;41.412;2.164;2023-04-24T15:31:58;8.18;;;3.00;;
47153;SDS011;32907;41.412;2.164;2023-04-24T15:34:28;6.53;;;2.80;;
47153;SDS011;32907;41.412;2.164;2023-04-24T15:36:56;10.15;;;2.90;;
47153;SDS011;32907;41.412;2.164;2023-04-24T15:39:24;8.25;;;2.97;;
47153;SDS011;32907;41.412;2.164;2023-04-24T15:41:53;7.97;;;2.90;;
47153;SDS011;32907;41.412;2.164;2023-04-24T15:44:21;7.85;;;3.08;;
47153;SDS011;32907;41.412;2.164;2023-04-24T15:46:49;7.53;;;2.70;;
47153;SDS011;32907;41.412;2.164;2023-04-24T15:49:18;7.03;;;3.15;;
47153;SDS011;32907;41.412;2.164;2023-04-24T15:51:46;12.35;;;3.50;;
47153;SDS011;32907;41.412;2.164;2023-04-24T15:54:14;7.85;;;3.10;;
47153;SDS011;32907;41.412;2.164;2023-04-24T15:56:41;9.48;;;3.08;;
47153;SDS011;32907;41.412;2.164;2023-04-24T15:59:10;6.85;;;2.83;;
47153;SDS011;32907;41.412;2.164;2023-04-24T16:01:38;8.45;;;3.00;;
47153;SDS011;32907;41.412;2.164;2023-04-24T16:04:06;9.15;;;3.05;;